createdAt,value
2018-09-01T00:01:26.882Z,100115.14
2018-09-01T00:03:57.181Z,100115.72
2018-09-01T00:06:29.194Z,100113.59
2018-09-01T00:09:01.124Z,100117.24
2018-09-01T00:11:33.710Z,100097.14
2018-09-01T00:14:05.703Z,100114.52
2018-09-01T00:16:37.345Z,100116.03
2018-09-01T00:19:08.960Z,100121.52
2018-09-01T00:21:39.893Z,100122.17
2018-09-01T00:24:13.189Z,100116.75
2018-09-01T00:26:45.408Z,100112.95
2018-09-01T00:29:15.851Z,100115.52
2018-09-01T00:31:46.893Z,100115.83
2018-09-01T00:34:17.201Z,100120.55
2018-09-01T00:36:47.429Z,100119.58
2018-09-01T00:39:18.345Z,100125.21
2018-09-01T00:41:49.576Z,100129.67
2018-09-01T00:44:20.041Z,100128.36
2018-09-01T00:46:52.297Z,100104.98
2018-09-01T00:49:23.842Z,100123.23
2018-09-01T00:51:54.663Z,100127.23
2018-09-01T00:54:27.108Z,100124.98
2018-09-01T00:56:58.354Z,100121.15
2018-09-01T00:59:30.296Z,100121.15
2018-09-01T01:02:02.802Z,100124.59
2018-09-01T01:04:34.105Z,100128.34
2018-09-01T01:07:04.239Z,100126.66
2018-09-01T01:09:34.920Z,100136.22
2018-09-01T01:12:04.925Z,100131.06
2018-09-01T01:23:16.778Z,100099.72
2018-09-01T01:25:47.393Z,100132.46
2018-09-01T01:28:19.120Z,100133.58
2018-09-01T01:30:50.199Z,100131.12
2018-09-01T01:33:21.282Z,100126.59
2018-09-01T01:35:53.166Z,100126.56
2018-09-01T01:38:25.135Z,100126.46
2018-09-01T01:40:56.177Z,100130.52
2018-09-01T01:43:27.767Z,100129.13
2018-09-01T01:46:00.312Z,100136.02
2018-09-01T01:48:31.942Z,100127.38
2018-09-01T01:51:02.145Z,100126.77
2018-09-01T02:00:39.905Z,100125.75
2018-09-01T02:03:10.473Z,100122.64
2018-09-01T02:05:41.419Z,100120.21
2018-09-01T02:08:11.851Z,100121.16
2018-09-01T02:10:44.394Z,100122.03
2018-09-01T02:13:14.927Z,100127.60
2018-09-01T02:15:46.162Z,100128.11
2018-09-01T02:18:18.239Z,100124.39
2018-09-01T02:20:49.197Z,100122.67
2018-09-01T02:23:19.169Z,100129.55
2018-09-01T02:25:49.252Z,100130.02
2018-09-01T02:28:20.707Z,100139.95
2018-09-01T02:30:50.918Z,100143.27
2018-09-01T02:33:23.647Z,100146.06
2018-09-01T02:35:56.217Z,100149.50
2018-09-01T02:38:27.988Z,100153.46
2018-09-01T02:40:59.610Z,100149.33
2018-09-01T02:43:31.826Z,100163.98
2018-09-01T02:46:02.505Z,100162.36
2018-09-01T02:48:34.320Z,100158.22
2018-09-01T02:51:04.756Z,100161.09
2018-09-01T02:53:37.261Z,100164.94
2018-09-01T02:56:09.955Z,100168.30
2018-09-01T02:58:40.843Z,100165.67
2018-09-01T03:01:17.166Z,100167.17
2018-09-01T03:03:49.411Z,100173.56
2018-09-01T03:06:22.245Z,100174.69
2018-09-01T03:08:52.363Z,100172.95
2018-09-01T03:11:22.812Z,100112.63
2018-09-01T03:13:53.235Z,100163.36
2018-09-01T03:16:23.166Z,100166.30
2018-09-01T03:18:53.497Z,100170.62
2018-09-01T03:21:25.270Z,100170.55
2018-09-01T03:23:56.130Z,100170.73
2018-09-01T03:26:26.355Z,100174.84
2018-09-01T03:28:57.642Z,100163.83
2018-09-01T03:31:28.781Z,100172.73
2018-09-01T03:34:00.025Z,100171.31
2018-09-01T03:36:31.335Z,100162.52
2018-09-01T03:39:02.428Z,100166.37
2018-09-01T03:41:32.712Z,100163.21
2018-09-01T03:44:03.056Z,100163.94
2018-09-01T03:46:34.206Z,100164.74
2018-09-01T03:49:06.166Z,100162.30
2018-09-01T03:51:36.799Z,100163.83
2018-09-01T03:54:07.645Z,100168.05
2018-09-01T03:56:38.750Z,100174.31
2018-09-01T03:59:10.325Z,100180.78
2018-09-01T04:01:41.323Z,100170.10
2018-09-01T04:04:13.245Z,100170.30
2018-09-01T04:06:43.856Z,100171.09
2018-09-01T04:09:14.539Z,100173.83
2018-09-01T04:11:45.874Z,100176.34
2018-09-01T04:14:16.658Z,100182.41
2018-09-01T04:16:47.590Z,100185.27
2018-09-01T04:19:20.208Z,100185.43
2018-09-01T04:21:52.177Z,100188.45
2018-09-01T04:24:22.377Z,100187.49
2018-09-01T04:26:52.781Z,100189.55
2018-09-01T04:29:23.080Z,100188.73
2018-09-01T04:31:54.488Z,100191.82
2018-09-01T04:34:24.867Z,100196.86
2018-09-01T04:36:56.146Z,100191.66
2018-09-01T04:39:26.803Z,100196.74
2018-09-01T04:41:57.292Z,100181.50
2018-09-01T04:44:28.849Z,100210.89
2018-09-01T04:47:00.798Z,100211.73
2018-09-01T04:49:32.742Z,100219.01
2018-09-01T04:52:03.256Z,100216.13
2018-09-01T04:54:34.022Z,100221.59
2018-09-01T04:57:05.689Z,100231.62
2018-09-01T04:59:36.724Z,100225.56
2018-09-01T05:02:10.730Z,100234.81
2018-09-01T05:04:42.522Z,100227.56
2018-09-01T05:07:15.146Z,100230.56
2018-09-01T05:09:48.020Z,100226.03
2018-09-01T05:12:18.870Z,100228.22
2018-09-01T05:14:49.519Z,100232.69
2018-09-01T05:17:19.969Z,100232.55
2018-09-01T05:19:50.519Z,100229.45
2018-09-01T05:22:20.562Z,100227.41
2018-09-01T05:24:51.437Z,100227.59
2018-09-01T05:27:24.025Z,100227.18
2018-09-01T05:29:55.932Z,100226.52
2018-09-01T05:32:27.331Z,100230.77
2018-09-01T05:35:00.331Z,100230.35
2018-09-01T05:37:34.595Z,100227.73
2018-09-01T05:40:05.810Z,100227.02
2018-09-01T05:42:36.012Z,100227.52
2018-09-01T05:45:07.399Z,100237.80
2018-09-01T05:47:38.138Z,100242.56
2018-09-01T05:50:08.554Z,100238.22
2018-09-01T05:52:39.151Z,100240.55
2018-09-01T05:55:11.577Z,100238.12
2018-09-01T05:57:41.784Z,100235.67
2018-09-01T06:00:12.644Z,100239.03
2018-09-01T06:02:43.388Z,100235.67
2018-09-01T06:05:13.638Z,100243.56
2018-09-01T06:07:44.184Z,100246.73
2018-09-01T06:10:17.299Z,100247.73
2018-09-01T06:12:48.694Z,100247.13
2018-09-01T06:15:20.592Z,100244.88
2018-09-01T06:17:50.979Z,100248.05
2018-09-01T06:20:22.520Z,100248.45
2018-09-01T06:22:54.206Z,100244.50
2018-09-01T06:25:24.324Z,100242.75
2018-09-01T06:27:57.160Z,100234.48
2018-09-01T06:30:36.990Z,100240.25
2018-09-01T06:33:08.768Z,100237.20
2018-09-01T06:35:39.435Z,100231.18
2018-09-01T06:38:10.367Z,100236.82
2018-09-01T06:40:40.048Z,100238.02
2018-09-01T06:43:11.419Z,100242.92
2018-09-01T06:45:42.880Z,100245.06
2018-09-01T06:48:16.465Z,100244.30
2018-09-01T06:50:49.610Z,100239.73
2018-09-01T06:53:20.450Z,100249.45
2018-09-01T06:55:51.406Z,100248.81
2018-09-01T06:58:21.921Z,100256.80
2018-09-01T07:00:52.243Z,100263.42
2018-09-01T07:03:22.234Z,100262.53
2018-09-01T07:05:52.940Z,100266.34
2018-09-01T07:08:24.334Z,100264.97
2018-09-01T07:10:56.094Z,100247.84
2018-09-01T07:13:31.919Z,100272.97
2018-09-01T07:16:13.462Z,100273.73
2018-09-01T07:18:45.558Z,100281.88
2018-09-01T07:21:18.841Z,100284.64
2018-09-01T07:23:49.985Z,100276.02
2018-09-01T07:26:28.002Z,100283.60
2018-09-01T07:29:01.622Z,100277.41
2018-09-01T07:31:32.422Z,100282.86
2018-09-01T07:34:02.919Z,100282.31
2018-09-01T07:36:38.352Z,100286.17
2018-09-01T07:39:14.239Z,100282.50
2018-09-01T07:41:45.572Z,100288.04
2018-09-01T07:44:21.726Z,100290.20
2018-09-01T07:46:54.959Z,100297.09
2018-09-01T07:49:37.895Z,100302.63
2018-09-01T07:52:18.743Z,100306.11
2018-09-01T07:54:50.185Z,100306.22
2018-09-01T07:57:23.046Z,100306.38
2018-09-01T07:59:54.582Z,100294.05
2018-09-01T08:02:28.535Z,100298.13
2018-09-01T08:05:15.631Z,100300.08
2018-09-01T08:07:48.317Z,100304.42
2018-09-01T08:10:35.628Z,100313.84
2018-09-01T08:13:17.179Z,100303.44
2018-09-01T08:15:56.416Z,100281.84
2018-09-01T08:18:36.418Z,100280.31
2018-09-01T08:23:57.339Z,100310.81
2018-09-01T08:26:31.248Z,100313.41
2018-09-01T08:29:04.873Z,100312.19
2018-09-01T08:31:34.916Z,100304.05
2018-09-01T08:34:06.250Z,100303.06
2018-09-01T08:36:41.161Z,100305.63
2018-09-01T08:39:12.388Z,100307.55
2018-09-01T08:41:42.780Z,100306.08
2018-09-01T08:44:14.570Z,100310.69
2018-09-01T08:46:45.944Z,100308.30
2018-09-01T08:49:17.143Z,100308.39
2018-09-01T08:51:48.040Z,100311.01
2018-09-01T08:54:18.069Z,100302.28
2018-09-01T08:56:50.367Z,100303.30
2018-09-01T08:59:24.427Z,100301.37
2018-09-01T09:01:55.964Z,100301.55
2018-09-01T09:04:27.058Z,100307.41
2018-09-01T09:06:57.493Z,100303.20
2018-09-01T09:09:27.920Z,100303.95
2018-09-01T09:11:57.889Z,100300.32
2018-09-01T09:14:27.710Z,100305.13
2018-09-01T09:16:57.924Z,100300.22
2018-09-01T09:19:28.459Z,100299.02
2018-09-01T09:21:58.299Z,100308.44
2018-09-01T09:24:29.217Z,100304.67
2018-09-01T09:27:00.821Z,100294.16
2018-09-01T09:29:32.681Z,100297.14
2018-09-01T09:32:02.738Z,100298.81
2018-09-01T09:34:33.840Z,100300.47
2018-09-01T09:37:03.899Z,100294.81
2018-09-01T09:39:35.875Z,100295.34
2018-09-01T09:42:07.195Z,100297.94
2018-09-01T09:44:37.079Z,100303.03
2018-09-01T09:47:07.432Z,100305.05
2018-09-01T09:49:37.839Z,100297.34
2018-09-01T09:52:07.867Z,100305.64
2018-09-01T09:54:39.060Z,100301.23
2018-09-01T09:57:10.033Z,100293.11
2018-09-01T09:59:42.242Z,100294.61
2018-09-01T10:02:14.999Z,100294.40
2018-09-01T10:04:45.405Z,100295.41
2018-09-01T10:07:17.455Z,100290.41
2018-09-01T10:09:48.678Z,100290.70
2018-09-01T10:12:21.984Z,100296.62
2018-09-01T10:14:54.308Z,100292.83
2018-09-01T10:17:30.468Z,100290.05
2018-09-01T10:20:02.289Z,100289.84
2018-09-01T10:22:33.253Z,100288.39
2018-09-01T10:25:05.366Z,100295.75
2018-09-01T10:27:35.693Z,100274.35
2018-09-01T10:30:08.243Z,100273.41
2018-09-01T10:32:39.963Z,100273.03
2018-09-01T10:35:14.007Z,100273.68
2018-09-01T10:37:45.259Z,100273.73
2018-09-01T10:40:16.684Z,100273.24
2018-09-01T10:42:47.447Z,100261.28
2018-09-01T10:45:18.804Z,100257.04
2018-09-01T10:47:48.730Z,100255.13
2018-09-01T10:50:24.223Z,100248.12
2018-09-01T10:52:59.071Z,100247.34
2018-09-01T10:55:29.231Z,100248.47
2018-09-01T10:58:02.937Z,100218.02
2018-09-01T11:00:33.886Z,100250.54
2018-09-01T11:03:05.475Z,100249.01
2018-09-01T11:05:37.231Z,100243.09
2018-09-01T11:08:07.858Z,100242.31
2018-09-01T11:10:39.731Z,100238.81
2018-09-01T11:13:12.389Z,100235.88
2018-09-01T11:15:47.250Z,100235.59
2018-09-01T11:18:22.011Z,100231.57
2018-09-01T11:20:52.706Z,100235.30
2018-09-01T11:23:26.047Z,100236.59
2018-09-01T11:25:56.713Z,100234.34
2018-09-01T11:28:28.241Z,100238.73
2018-09-01T11:31:01.356Z,100236.89
2018-09-01T11:33:31.621Z,100236.16
2018-09-01T11:36:04.394Z,100212.70
2018-09-01T11:38:35.797Z,100228.72
2018-09-01T11:41:07.289Z,100234.07
2018-09-01T11:43:38.474Z,100226.59
2018-09-01T11:46:09.119Z,100222.80
2018-09-01T11:48:41.396Z,100220.63
2018-09-01T11:51:12.945Z,100217.97
2018-09-01T11:53:43.560Z,100213.39
2018-09-01T11:56:14.320Z,100221.94
2018-09-01T11:58:48.795Z,100192.51
2018-09-01T12:01:19.953Z,100216.63
2018-09-01T12:03:50.985Z,100208.92
2018-09-01T12:06:24.585Z,100212.59
2018-09-01T12:08:58.836Z,100202.57
2018-09-01T12:11:31.022Z,100199.67
2018-09-01T12:14:04.817Z,100207.80
2018-09-01T12:16:37.619Z,100209.75
2018-09-01T12:19:11.674Z,100204.22
2018-09-01T12:21:42.260Z,100199.98
2018-09-01T12:24:15.039Z,100206.45
2018-09-01T12:26:46.491Z,100209.67
2018-09-01T12:29:18.853Z,100211.19
2018-09-01T12:31:49.910Z,100214.35
2018-09-01T12:34:22.591Z,100212.48
2018-09-01T12:36:56.074Z,100214.48
2018-09-01T12:39:27.009Z,100223.95
2018-09-01T12:41:57.558Z,100221.39
2018-09-01T12:44:28.485Z,100217.23
2018-09-01T12:47:00.185Z,100221.80
2018-09-01T12:49:31.479Z,100220.45
2018-09-01T12:52:04.250Z,100224.28
2018-09-01T12:54:36.530Z,100233.59
2018-09-01T12:57:07.421Z,100225.17
2018-09-01T12:59:38.568Z,100219.83
2018-09-01T13:02:10.734Z,100220.52
2018-09-01T13:04:40.922Z,100213.86
2018-09-01T13:07:11.216Z,100207.13
2018-09-01T13:09:41.609Z,100198.66
2018-09-01T13:12:13.718Z,100191.25
2018-09-01T13:14:44.419Z,100187.62
2018-09-01T13:17:14.986Z,100192.63
2018-09-01T13:19:46.604Z,100191.53
2018-09-01T13:22:17.860Z,100194.80
2018-09-01T13:24:49.078Z,100183.45
2018-09-01T13:27:20.356Z,100189.81
2018-09-01T13:29:52.737Z,100190.27
2018-09-01T13:32:24.363Z,100181.08
2018-09-01T13:34:56.479Z,100193.95
2018-09-01T13:37:31.105Z,100192.15
2018-09-01T13:40:04.936Z,100191.35
2018-09-01T13:42:41.147Z,100182.25
2018-09-01T13:45:14.109Z,100186.55
2018-09-01T13:47:44.746Z,100183.33
2018-09-01T13:50:15.836Z,100184.06
2018-09-01T13:52:45.859Z,100178.77
2018-09-01T13:55:16.887Z,100170.56
2018-09-01T13:57:48.060Z,100173.44
2018-09-01T14:00:22.038Z,100170.86
2018-09-01T14:02:54.997Z,100175.22
2018-09-01T14:05:26.890Z,100172.54
2018-09-01T14:07:58.940Z,100165.31
2018-09-01T14:10:32.820Z,100169.55
2018-09-01T14:13:07.376Z,100166.33
2018-09-01T14:15:41.519Z,100163.58
2018-09-01T14:19:16.088Z,100170.28
2018-09-01T14:21:46.558Z,100162.94
2018-09-01T14:24:24.957Z,100163.77
2018-09-01T14:26:58.271Z,100172.37
2018-09-01T14:29:32.977Z,100161.13
2018-09-01T14:32:05.473Z,100160.40
2018-09-01T14:39:17.241Z,100158.81
2018-09-01T14:42:00.721Z,100166.22
2018-09-01T14:44:45.241Z,100170.30
2018-09-01T14:47:18.542Z,100166.77
2018-09-01T14:49:51.882Z,100163.08
2018-09-01T14:52:26.616Z,100156.50
2018-09-01T14:54:58.902Z,100150.48
2018-09-01T14:57:31.787Z,100173.95
2018-09-01T15:00:04.860Z,100161.21
2018-09-01T15:02:36.948Z,100166.58
2018-09-01T15:05:12.647Z,100167.97
2018-09-01T15:07:43.840Z,100164.62
2018-09-01T15:10:15.848Z,100166.70
2018-09-01T15:12:47.832Z,100164.16
2018-09-01T15:15:17.970Z,100163.53
2018-09-01T15:17:48.926Z,100157.92
2018-09-01T15:20:19.786Z,100166.60
2018-09-01T15:22:50.359Z,100172.00
2018-09-01T15:25:20.513Z,100166.58
2018-09-01T15:27:50.930Z,100172.96
2018-09-01T15:30:20.984Z,100176.67
2018-09-01T15:32:50.829Z,100184.00
2018-09-01T15:35:27.252Z,100182.91
2018-09-01T15:37:58.452Z,100177.74
2018-09-01T15:40:29.473Z,100172.84
2018-09-01T15:43:01.923Z,100174.03
2018-09-01T15:45:35.907Z,100170.31
2018-09-01T15:48:07.906Z,100177.80
2018-09-01T15:50:38.429Z,100162.98
2018-09-01T15:53:10.248Z,100170.18
2018-09-01T15:55:39.965Z,100180.28
2018-09-01T15:58:13.954Z,100168.48
2018-09-01T16:00:44.408Z,100174.05
2018-09-01T16:03:15.133Z,100173.54
2018-09-01T16:05:46.320Z,100176.58
2018-09-01T16:08:18.100Z,100119.64
2018-09-01T16:10:52.914Z,100175.06
2018-09-01T16:13:31.392Z,100182.52
2018-09-01T16:16:10.020Z,100175.20
2018-09-01T16:18:41.259Z,100180.63
2018-09-01T16:21:12.328Z,100184.92
2018-09-01T16:23:42.636Z,100182.59
2018-09-01T16:26:17.193Z,100182.53
2018-09-01T16:28:50.415Z,100182.17
2018-09-01T16:31:21.896Z,100188.52
2018-09-01T16:33:52.647Z,100179.52
2018-09-01T16:36:23.874Z,100177.47
2018-09-01T16:38:56.968Z,100185.77
2018-09-01T16:41:33.626Z,100176.29
2018-09-01T16:44:05.881Z,100183.34
2018-09-01T16:46:37.036Z,100179.39
2018-09-01T16:49:08.858Z,100182.57
2018-09-01T16:51:41.305Z,100189.26
2018-09-01T16:54:14.277Z,100186.34
2018-09-01T16:56:45.746Z,100187.17
2018-09-01T16:59:17.023Z,100179.67
2018-09-01T17:01:48.412Z,100178.44
2018-09-01T17:04:21.405Z,100182.20
2018-09-01T17:06:57.903Z,100189.70
2018-09-01T17:09:29.178Z,100187.04
2018-09-01T17:12:01.690Z,100188.16
2018-09-01T17:14:39.915Z,100189.72
2018-09-01T17:17:15.118Z,100188.66
2018-09-01T17:19:48.030Z,100187.34
2018-09-01T17:22:20.836Z,100188.91
2018-09-01T17:24:56.327Z,100190.27
2018-09-01T17:27:27.329Z,100194.53
2018-09-01T17:29:59.901Z,100198.00
2018-09-01T17:32:30.356Z,100205.23
2018-09-01T17:35:03.448Z,100203.88
2018-09-01T17:37:37.337Z,100206.55
2018-09-01T17:40:09.561Z,100199.87
2018-09-01T17:42:42.702Z,100197.48
2018-09-01T17:45:19.280Z,100195.05
2018-09-01T17:47:52.600Z,100204.38
2018-09-01T17:53:06.366Z,100209.35
2018-09-01T17:55:38.396Z,100214.41
2018-09-01T17:58:11.490Z,100218.17
2018-09-01T18:00:44.321Z,100216.80
2018-09-01T18:03:17.120Z,100215.97
2018-09-01T18:05:49.181Z,100223.41
2018-09-01T18:08:26.180Z,100217.74
2018-09-01T18:11:00.134Z,100232.39
2018-09-01T18:13:34.608Z,100229.44
2018-09-01T18:16:14.081Z,100225.16
2018-09-01T18:18:47.454Z,100229.91
2018-09-01T18:21:24.657Z,100225.16
2018-09-01T18:23:59.096Z,100222.50
2018-09-01T18:26:35.781Z,100223.80
2018-09-01T18:29:08.014Z,100229.89
2018-09-01T18:31:40.330Z,100233.84
2018-09-01T18:34:13.202Z,100240.50
2018-09-01T18:36:54.389Z,100239.63
2018-09-01T18:39:34.408Z,100238.63
2018-09-01T18:42:06.023Z,100244.71
2018-09-01T18:44:37.891Z,100240.22
2018-09-01T18:47:14.206Z,100241.22
2018-09-01T18:49:53.620Z,100239.11
2018-09-01T18:52:30.568Z,100242.27
2018-09-01T18:55:04.628Z,100240.91
2018-09-01T18:57:58.250Z,100244.63
2018-09-01T19:03:59.636Z,100257.77
2018-09-01T19:06:36.236Z,100247.92
2018-09-01T19:09:14.285Z,100250.80
2018-09-01T19:11:51.800Z,100246.25
2018-09-01T19:14:30.707Z,100248.84
2018-09-01T19:17:09.518Z,100242.77
2018-09-01T19:19:46.848Z,100246.80
2018-09-01T19:22:40.223Z,100259.03
2018-09-01T19:25:21.915Z,100253.11
2018-09-01T19:29:00.038Z,100253.42
2018-09-01T19:31:38.397Z,100256.89
2018-09-01T19:34:19.164Z,100260.40
2018-09-01T19:36:51.915Z,100255.95
2018-09-01T19:39:25.757Z,100258.09
2018-09-01T19:42:09.348Z,100249.57
2018-09-01T19:44:46.989Z,100247.97
2018-09-01T19:47:19.088Z,100255.35
2018-09-01T19:50:09.782Z,100254.02
2018-09-01T19:52:46.827Z,100255.70
2018-09-01T19:58:10.998Z,100260.75
2018-09-01T20:00:43.096Z,100262.92
2018-09-01T20:03:13.373Z,100264.25
2018-09-01T20:05:43.969Z,100263.63
2018-09-01T20:08:14.340Z,100259.14
2018-09-01T20:10:46.337Z,100230.80
2018-09-01T20:13:18.908Z,100256.23
2018-09-01T20:15:51.333Z,100260.75
2018-09-01T20:18:21.912Z,100254.34
2018-09-01T20:20:53.381Z,100255.70
2018-09-01T20:23:23.813Z,100254.41
2018-09-01T20:25:57.782Z,100255.25
2018-09-01T20:28:28.171Z,100257.34
2018-09-01T20:30:59.763Z,100254.44
2018-09-01T20:33:30.817Z,100257.10
2018-09-01T20:36:01.823Z,100255.52
2018-09-01T20:38:33.263Z,100264.84
2018-09-01T20:41:03.259Z,100266.70
2018-09-01T20:43:34.514Z,100269.33
2018-09-01T20:46:04.787Z,100270.31
2018-09-01T20:48:36.503Z,100274.91
2018-09-01T20:51:07.245Z,100274.69
2018-09-01T20:53:38.592Z,100275.70
2018-09-01T20:56:09.809Z,100276.27
2018-09-01T20:58:42.251Z,100274.16
2018-09-01T21:01:14.066Z,100279.25
2018-09-01T21:03:45.814Z,100281.66
2018-09-01T21:06:16.607Z,100278.89
2018-09-01T21:08:47.156Z,100280.75
2018-09-01T21:11:18.104Z,100279.67
2018-09-01T21:13:48.625Z,100277.53
2018-09-01T21:16:18.491Z,100281.17
2018-09-01T21:18:53.553Z,100281.24
2018-09-01T21:21:28.918Z,100280.96
2018-09-01T21:24:02.797Z,100276.94
2018-09-01T21:26:34.072Z,100273.98
2018-09-01T21:29:04.650Z,100274.55
2018-09-01T21:31:35.856Z,100278.58
2018-09-01T21:34:06.409Z,100275.92
2018-09-01T21:36:38.951Z,100272.41
2018-09-01T21:39:09.764Z,100278.27
2018-09-01T21:41:40.961Z,100270.80
2018-09-01T21:44:12.076Z,100268.66
2018-09-01T21:46:44.066Z,100268.63
2018-09-01T21:49:14.904Z,100272.90
2018-09-01T21:51:45.526Z,100275.24
2018-09-01T21:54:17.041Z,100269.08
2018-09-01T21:56:47.088Z,100260.88
2018-09-01T21:59:17.148Z,100256.89
2018-09-01T22:01:53.534Z,100250.27
2018-09-01T22:04:26.425Z,100256.78
2018-09-01T22:06:57.756Z,100257.41
2018-09-01T22:09:29.289Z,100260.06
2018-09-01T22:11:59.694Z,100254.80
2018-09-01T22:14:31.340Z,100256.88
2018-09-01T22:17:02.196Z,100259.11
2018-09-01T22:19:33.720Z,100257.34
2018-09-01T22:22:04.191Z,100262.14
2018-09-01T22:24:34.548Z,100253.30
2018-09-01T22:27:05.947Z,100252.45
2018-09-01T22:29:36.904Z,100244.02
2018-09-01T22:32:07.152Z,100250.72
2018-09-01T22:34:38.692Z,100247.41
2018-09-01T22:37:10.617Z,100248.27
2018-09-01T22:39:41.782Z,100249.69
2018-09-01T22:42:12.377Z,100264.27
2018-09-01T22:44:42.417Z,100264.13
2018-09-01T22:47:17.391Z,100264.31
2018-09-01T22:49:47.788Z,100260.25
2018-09-01T22:52:18.484Z,100261.79
2018-09-01T22:54:48.309Z,100256.30
2018-09-01T22:57:20.578Z,100259.37
2018-09-01T22:59:51.996Z,100258.66
2018-09-01T23:02:21.792Z,100262.16
2018-09-01T23:04:51.798Z,100259.56
2018-09-01T23:07:21.938Z,100266.02
2018-09-01T23:09:52.115Z,100270.83
2018-09-01T23:12:23.131Z,100271.31
2018-09-01T23:14:53.576Z,100273.78
2018-09-01T23:17:25.861Z,100275.75
2018-09-01T23:19:55.727Z,100281.02
2018-09-01T23:22:34.665Z,100282.34
2018-09-01T23:25:04.808Z,100282.12
2018-09-01T23:27:36.306Z,100278.31
2018-09-01T23:30:07.606Z,100282.44
2018-09-01T23:32:37.407Z,100285.16
2018-09-01T23:35:09.048Z,100289.67
2018-09-01T23:37:40.437Z,100292.05
2018-09-01T23:40:10.845Z,100283.58
2018-09-01T23:42:41.502Z,100292.70
2018-09-01T23:45:12.724Z,100283.81
2018-09-01T23:47:42.824Z,100285.23
2018-09-01T23:50:14.070Z,100289.27
2018-09-01T23:52:44.296Z,100291.40
2018-09-01T23:55:16.144Z,100293.67
2018-09-01T23:57:46.594Z,100288.83
